Time;durP1;ratioP1;P1;durP2;ratioP2;P2;SDS_P1;SDS_P2;PMS_P1;PMS_P2;Temp;Humidity;BMP_temperature;BMP_pressure;BME280_temperature;BME280_humidity;BME280_pressure;Samples;Min_cycle;Max_cycle;Signal;HPM_P1;HPM_P2
2021/07/18 00:01:46;;;;;;;29.25;13.57;;;;;;;22.46;96.00;98929.81;4829407;29;20129;-57
2021/07/18 00:04:12;;;;;;;22.80;10.77;;;;;;;22.47;96.83;98926.19;4840212;29;20561;-58
2021/07/18 00:06:38;;;;;;;37.75;15.13;;;;;;;22.46;96.57;98929.81;4824735;29;20049;-56
2021/07/18 00:09:05;;;;;;;18.30;11.88;;;;;;;22.45;97.09;98933.47;4840232;29;20432;-55
2021/07/18 00:11:32;;;;;;;19.65;11.23;;;;;;;22.43;97.45;98930.94;4824277;29;20060;-57
2021/07/18 00:13:58;;;;;;;16.92;10.45;;;;;;;22.43;98.17;98924.81;4840502;29;20049;-57
2021/07/18 00:16:24;;;;;;;22.20;10.75;;;;;;;22.40;98.14;98924.09;4848389;29;20109;-57
2021/07/18 00:18:49;;;;;;;21.73;11.40;;;;;;;22.41;97.65;98927.59;4858932;29;20041;-58
2021/07/18 00:21:15;;;;;;;23.90;11.73;;;;;;;22.42;96.93;98920.47;4839524;29;20041;-57
2021/07/18 00:23:41;;;;;;;22.15;11.02;;;;;;;22.43;95.48;98908.91;4840243;29;20056;-58
2021/07/18 00:26:07;;;;;;;21.83;10.27;;;;;;;22.41;95.23;98911.69;4840138;29;20120;-59
2021/07/18 00:28:33;;;;;;;19.95;10.88;;;;;;;22.39;95.62;98911.03;4841654;29;20133;-58
2021/07/18 00:30:59;;;;;;;21.48;11.27;;;;;;;22.37;94.67;98907.69;4840223;29;20050;-58
2021/07/18 00:33:37;;;;;;;;;;;;;;;22.37;94.50;98921.75;4826355;29;20090;-58
2021/07/18 00:36:03;;;;;;;16.73;10.05;;;;;;;22.36;94.48;98920.09;4840374;29;19932;-58
2021/07/18 00:38:28;;;;;;;21.38;11.07;;;;;;;22.31;93.93;98909.09;4840390;29;20058;-58
2021/07/18 00:40:54;;;;;;;23.67;10.55;;;;;;;22.34;93.62;98913.28;4840437;29;20050;-58
2021/07/18 00:43:20;;;;;;;24.02;10.23;;;;;;;22.35;93.57;98906.97;4839992;29;20419;-57
2021/07/18 00:45:45;;;;;;;26.92;10.55;;;;;;;22.33;92.47;98912.44;4839618;29;20141;-58
2021/07/18 00:48:11;;;;;;;21.60;10.00;;;;;;;22.32;93.11;98915.22;4840047;29;20466;-59
2021/07/18 00:50:43;;;;;;;21.10;9.98;;;;;;;22.30;93.27;98917.19;4840286;29;20141;-57
2021/07/18 00:53:10;;;;;;;25.13;10.45;;;;;;;22.26;94.18;98919.28;4839625;29;20133;-58
2021/07/18 00:55:40;;;;;;;25.35;10.52;;;;;;;22.25;94.71;98916.78;4839764;29;20545;-57
2021/07/18 00:58:06;;;;;;;20.75;10.77;;;;;;;22.23;95.09;98919.59;4845207;29;20053;-59
2021/07/18 01:00:32;;;;;;;18.70;10.68;;;;;;;22.21;95.55;98915.41;4832247;29;20058;-58
2021/07/18 01:02:58;;;;;;;18.65;9.50;;;;;;;22.21;95.62;98916.25;4842618;29;20470;-57
2021/07/18 01:05:24;;;;;;;18.90;10.18;;;;;;;22.22;95.58;98920.56;4858378;29;20042;-59
2021/07/18 01:07:51;;;;;;;23.88;10.25;;;;;;;22.21;95.84;98924.19;4853366;29;20418;-57
2021/07/18 01:10:19;;;;;;;29.58;11.32;;;;;;;22.20;95.59;98913.72;4843623;29;20046;-58
2021/07/18 01:12:45;;;;;;;21.27;10.27;;;;;;;22.21;95.70;98910.94;4853221;29;20045;-57
2021/07/18 01:15:11;;;;;;;21.30;10.75;;;;;;;22.19;95.90;98917.38;4839593;29;20097;-58
2021/07/18 01:17:37;;;;;;;19.60;10.43;;;;;;;22.19;95.79;98912.91;4840223;29;20050;-57
2021/07/18 01:20:05;;;;;;;27.30;9.98;;;;;;;22.21;95.55;98913.59;4845059;29;20390;-58
2021/07/18 01:22:32;;;;;;;19.70;9.27;;;;;;;22.21;95.87;98910.94;4826357;29;20050;-58
2021/07/18 01:24:57;;;;;;;18.45;10.30;;;;;;;22.19;95.99;98915.53;4844034;29;20506;-54
2021/07/18 01:27:23;;;;;;;23.85;10.60;;;;;;;22.17;95.96;98914.03;4839957;29;20049;-57
2021/07/18 01:29:50;;;;;;;20.15;9.88;;;;;;;22.19;95.67;98912.91;4823233;29;20050;-57
2021/07/18 01:32:16;;;;;;;21.60;9.02;;;;;;;22.20;95.30;98919.03;4839721;29;20135;-57
2021/07/18 01:34:42;;;;;;;19.77;9.50;;;;;;;22.19;94.95;98920.84;4839897;29;20085;-58
2021/07/18 01:37:07;;;;;;;17.20;10.00;;;;;;;22.19;94.54;98915.53;4839625;29;20133;-57
2021/07/18 01:39:33;;;;;;;15.68;9.35;;;;;;;22.20;94.09;98917.22;4841774;29;20104;-59
2021/07/18 01:41:58;;;;;;;19.35;10.73;;;;;;;22.21;93.89;98910.94;4839892;29;20070;-58
2021/07/18 01:44:24;;;;;;;18.77;9.15;;;;;;;22.21;92.90;98910.13;4843263;29;20564;-58
2021/07/18 01:46:51;;;;;;;17.35;8.90;;;;;;;22.21;92.76;98905.66;4842456;29;20114;-59
2021/07/18 01:49:17;;;;;;;16.90;9.38;;;;;;;22.23;92.59;98913.47;4839587;29;20050;-58
2021/07/18 01:51:42;;;;;;;19.73;9.43;;;;;;;22.24;92.33;98915.94;4842115;29;20053;-57
2021/07/18 01:54:09;;;;;;;18.20;9.13;;;;;;;22.24;92.07;98915.13;4839464;29;20053;-57
2021/07/18 01:56:37;;;;;;;20.38;9.15;;;;;;;22.24;91.05;98910.66;4842236;29;20065;-60
2021/07/18 01:59:04;;;;;;;10.75;8.40;;;;;;;22.26;90.71;98915.81;4843351;29;20050;-59
2021/07/18 02:01:31;;;;;;;20.27;8.93;;;;;;;22.27;90.39;98928.91;4849610;29;20046;-58
2021/07/18 02:03:58;;;;;;;18.90;8.60;;;;;;;22.28;90.29;98922.66;4850376;29;20052;-59
2021/07/18 02:06:25;;;;;;;18.77;8.85;;;;;;;22.31;90.43;98921.50;4859287;29;20037;-61
2021/07/18 02:08:54;;;;;;;18.15;9.20;;;;;;;22.32;90.25;98925.81;4850105;29;20053;-57
2021/07/18 02:11:21;;;;;;;14.55;9.20;;;;;;;22.34;89.43;98923.88;4861643;29;20083;-59
2021/07/18 02:13:48;;;;;;;13.50;8.88;;;;;;;22.36;89.49;98924.53;4848866;29;20081;-59
2021/07/18 02:16:14;;;;;;;18.52;9.52;;;;;;;22.38;89.50;98934.03;4842253;29;20046;-56
2021/07/18 02:18:41;;;;;;;23.13;12.05;;;;;;;22.38;89.41;98934.03;4846064;29;20050;-57
2021/07/18 02:21:07;;;;;;;20.40;9.60;;;;;;;22.40;88.84;98932.06;4845813;29;20508;-58
2021/07/18 02:23:33;;;;;;;22.17;10.60;;;;;;;22.44;88.24;98934.44;4842493;29;20046;-57
2021/07/18 02:25:58;;;;;;;22.70;11.15;;;;;;;22.45;88.30;98936.09;4842458;29;20094;-58
2021/07/18 02:28:24;;;;;;;18.88;10.60;;;;;;;22.47;88.15;98929.66;4845791;29;20044;-57
2021/07/18 02:30:49;;;;;;;19.85;10.38;;;;;;;22.49;87.87;98927.72;4844187;29;20053;-57
2021/07/18 02:33:15;;;;;;;17.80;10.55;;;;;;;22.54;87.71;98928.09;4846553;29;20513;-59
2021/07/18 02:35:41;;;;;;;16.70;10.23;;;;;;;22.56;87.59;98935.91;4842234;29;20048;-58
2021/07/18 02:38:07;;;;;;;16.23;9.80;;;;;;;22.57;87.36;98930.44;4825808;29;20081;-57
2021/07/18 02:40:33;;;;;;;12.35;9.13;;;;;;;22.63;87.25;98936.97;4842354;29;20046;-58
2021/07/18 02:42:59;;;;;;;16.33;9.95;;;;;;;22.64;87.12;98931.53;4842049;29;20049;-59
2021/07/18 02:45:25;;;;;;;17.95;9.50;;;;;;;22.68;87.18;98940.88;4830636;29;20062;-58
2021/07/18 02:47:51;;;;;;;15.73;9.25;;;;;;;22.70;86.46;98940.72;4829967;29;20122;-58
2021/07/18 02:50:21;;;;;;;16.80;9.63;;;;;;;22.72;85.88;98941.41;4836807;29;20062;-57
2021/07/18 02:52:47;;;;;;;13.63;8.77;;;;;;;22.75;84.68;98941.97;4828437;29;20495;-58
2021/07/18 02:55:14;;;;;;;15.77;9.48;;;;;;;22.78;84.24;98952.28;4823174;29;20133;-58
2021/07/18 02:57:39;;;;;;;16.77;9.40;;;;;;;22.79;84.38;98939.88;4828644;29;20470;-59
2021/07/18 03:00:18;;;;;;;12.75;9.38;;;;;;;22.82;83.72;98942.19;4825319;29;20046;-60
2021/07/18 03:02:45;;;;;;;13.55;8.95;;;;;;;22.83;83.76;98941.22;4823751;29;20103;-57
2021/07/18 03:05:12;;;;;;;15.70;9.75;;;;;;;22.88;82.78;98940.78;4824594;29;20046;-56
2021/07/18 03:07:38;;;;;;;14.75;8.82;;;;;;;22.91;82.19;98943.16;4841044;29;20481;-58
2021/07/18 03:10:05;;;;;;;12.88;9.20;;;;;;;22.96;81.49;98940.88;4825432;29;20051;-58
2021/07/18 03:12:31;;;;;;;12.88;8.60;;;;;;;22.98;80.85;98941.56;4822669;29;20524;-58
2021/07/18 03:15:00;;;;;;;13.65;8.70;;;;;;;23.02;80.81;98946.44;4823176;29;20069;-58
2021/07/18 03:17:26;;;;;;;14.73;8.38;;;;;;;23.05;80.26;98945.28;4823281;29;20423;-57
2021/07/18 03:19:52;;;;;;;14.88;8.38;;;;;;;23.09;79.74;98942.19;4831178;29;20128;-57
2021/07/18 03:22:18;;;;;;;14.88;8.80;;;;;;;23.13;78.82;98948.84;4838905;29;20441;-58
2021/07/18 03:24:44;;;;;;;16.95;8.70;;;;;;;23.17;78.12;98949.41;4838159;29;20510;-56
2021/07/18 03:27:10;;;;;;;13.05;8.63;;;;;;;23.20;78.33;98952.56;4824165;29;20054;-58
2021/07/18 03:29:35;;;;;;;15.98;8.52;;;;;;;23.23;78.16;98944.34;4823385;29;20504;-57
2021/07/18 03:32:01;;;;;;;13.30;9.00;;;;;;;23.26;77.75;98942.34;4822026;29;20048;-57
2021/07/18 03:34:27;;;;;;;104.65;22.42;;;;;;;23.28;77.99;98946.53;4828135;29;20510;-58
2021/07/18 03:36:52;;;;;;;15.75;7.93;;;;;;;23.32;77.93;98942.59;4841394;29;20129;-57
2021/07/18 03:39:18;;;;;;;13.13;8.77;;;;;;;23.36;77.48;98943.94;4824317;29;20054;-57
2021/07/18 03:41:45;;;;;;;16.58;9.90;;;;;;;23.42;77.22;98947.81;4823093;29;20050;-58
2021/07/18 03:44:10;;;;;;;18.48;9.25;;;;;;;23.47;76.33;98942.91;4823103;29;20050;-57
2021/07/18 03:46:36;;;;;;;15.35;8.95;;;;;;;23.50;76.02;98935.47;4843038;29;20152;-58
2021/07/18 03:49:02;;;;;;;17.83;9.23;;;;;;;23.55;75.49;98935.03;4840937;29;20124;-58
2021/07/18 03:51:28;;;;;;;14.80;9.52;;;;;;;23.59;75.44;98945.19;4840742;29;20414;-57
2021/07/18 03:53:53;;;;;;;27.40;13.57;;;;;;;23.62;75.51;98944.88;4840545;29;20054;-57
2021/07/18 03:56:22;;;;;;;17.25;9.95;;;;;;;23.64;74.92;98948.22;4840804;29;20053;-58
2021/07/18 03:58:51;;;;;;;14.13;9.93;;;;;;;23.67;74.63;98939.09;4840564;29;20532;-57
2021/07/18 04:01:17;;;;;;;18.30;11.18;;;;;;;23.74;73.80;98940.16;4840581;29;20061;-58
2021/07/18 04:03:46;;;;;;;15.13;8.88;;;;;;;23.78;73.58;98932.72;4845211;29;20041;-58
2021/07/18 04:06:13;;;;;;;15.07;9.50;;;;;;;23.85;73.52;98937.28;4859105;29;20050;-62
2021/07/18 04:08:39;;;;;;;15.65;8.82;;;;;;;23.88;73.40;98936.94;4841723;29;20052;-58
2021/07/18 04:11:05;;;;;;;14.90;8.85;;;;;;;23.93;73.33;98939.13;4840646;29;20542;-56
2021/07/18 04:13:31;;;;;;;13.02;8.63;;;;;;;23.97;73.17;98937.84;4824732;29;20141;-57
2021/07/18 04:15:56;;;;;;;14.75;8.10;;;;;;;23.99;72.43;98933.22;4840808;29;20129;-57
2021/07/18 04:18:22;;;;;;;12.40;7.10;;;;;;;24.04;71.73;98936.22;4841521;29;20723;-56
2021/07/18 04:20:48;;;;;;;14.15;8.02;;;;;;;24.11;71.54;98936.44;4827731;29;20053;-57
2021/07/18 04:23:14;;;;;;;10.90;7.53;;;;;;;24.16;70.48;98927.00;4840507;29;20092;-57
2021/07/18 04:25:40;;;;;;;10.52;7.13;;;;;;;24.22;70.21;98931.75;4840378;29;20521;-57
2021/07/18 04:28:05;;;;;;;10.98;6.75;;;;;;;24.27;69.16;98931.25;4849509;29;20041;-56
2021/07/18 04:30:31;;;;;;;10.88;6.53;;;;;;;24.32;68.78;98928.97;4848714;29;20037;-56
2021/07/18 04:32:56;;;;;;;11.30;6.57;;;;;;;24.37;68.29;98929.31;4859036;29;20049;-57
2021/07/18 04:35:22;;;;;;;10.63;6.72;;;;;;;24.42;67.78;98927.00;4858485;29;20080;-57
2021/07/18 04:37:48;;;;;;;9.20;6.82;;;;;;;24.45;67.99;98927.53;4849046;29;20049;-57
2021/07/18 04:40:14;;;;;;;10.63;6.20;;;;;;;24.50;67.34;98924.38;4847874;29;20045;-56
2021/07/18 04:42:40;;;;;;;8.52;5.90;;;;;;;24.57;66.05;98930.75;4848359;29;20578;-58
2021/07/18 04:45:07;;;;;;;10.90;6.03;;;;;;;24.63;66.13;98927.44;4849632;29;20062;-55
2021/07/18 04:47:32;;;;;;;9.77;6.47;;;;;;;24.68;65.74;98927.81;4840341;29;20046;-57
2021/07/18 04:49:58;;;;;;;9.50;6.10;;;;;;;24.75;65.26;98931.50;4846384;29;20056;-56
2021/07/18 04:52:24;;;;;;;8.95;5.75;;;;;;;24.81;65.23;98928.16;4852656;29;20429;-56
2021/07/18 04:54:50;;;;;;;10.05;6.38;;;;;;;24.88;64.99;98917.75;4847328;29;20055;-58
2021/07/18 04:57:15;;;;;;;11.00;6.18;;;;;;;24.94;64.76;98922.44;4839953;29;20038;-57
2021/07/18 04:59:41;;;;;;;15.18;6.88;;;;;;;25.01;63.85;98919.97;4839977;29;20053;-55
2021/07/18 05:02:07;;;;;;;8.82;5.88;;;;;;;25.08;63.73;98921.78;4823787;29;20046;-57
2021/07/18 05:04:32;;;;;;;11.38;5.00;;;;;;;25.17;61.69;98927.97;4840233;29;20061;-57
2021/07/18 05:06:59;;;;;;;9.63;5.85;;;;;;;25.26;61.55;98925.16;4839967;29;20089;-58
2021/07/18 05:09:25;;;;;;;10.95;6.30;;;;;;;25.33;61.71;98927.16;4839669;29;20049;-57
2021/07/18 05:11:50;;;;;;;8.48;4.78;;;;;;;25.40;60.29;98923.66;4847261;29;20046;-57
2021/07/18 05:14:16;;;;;;;11.50;5.90;;;;;;;25.45;60.60;98916.00;4841473;29;20053;-59
2021/07/18 05:16:42;;;;;;;8.07;5.60;;;;;;;25.52;61.05;98924.19;4842027;29;20041;-56
2021/07/18 05:19:07;;;;;;;10.07;5.63;;;;;;;25.63;60.97;98927.38;4823613;29;20045;-59
2021/07/18 05:21:33;;;;;;;5.60;5.00;;;;;;;25.67;59.54;98931.38;4840382;29;20209;-58
2021/07/18 05:23:59;;;;;;;8.43;5.47;;;;;;;25.78;59.01;98929.38;4839909;29;20081;-53
2021/07/18 05:26:25;;;;;;;7.90;5.32;;;;;;;25.87;57.83;98926.50;4839686;29;20052;-56
2021/07/18 05:28:50;;;;;;;6.88;5.78;;;;;;;25.96;57.51;98932.69;4822847;29;20045;-55
2021/07/18 05:31:16;;;;;;;10.10;5.85;;;;;;;26.03;57.48;98928.31;4851640;29;20049;-55
2021/07/18 05:33:41;;;;;;;8.68;5.82;;;;;;;26.12;57.94;98935.28;4848956;29;20048;-58
2021/07/18 05:36:11;;;;;;;6.13;5.35;;;;;;;26.20;57.76;98931.78;4844102;29;20506;-56
2021/07/18 05:38:37;;;;;;;6.15;5.00;;;;;;;26.29;56.48;98931.63;4849472;29;20048;-55
2021/07/18 05:41:04;;;;;;;8.82;5.20;;;;;;;26.39;55.48;98921.59;4849114;29;20525;-54
2021/07/18 05:43:30;;;;;;;6.43;5.72;;;;;;;26.51;55.96;98927.41;4843288;29;20486;-55
2021/07/18 05:45:56;;;;;;;8.75;5.85;;;;;;;26.65;56.16;98928.50;4856445;29;20057;-54
2021/07/18 05:48:25;;;;;;;11.48;5.88;;;;;;;26.73;55.84;98923.16;4842953;29;20046;-56
2021/07/18 05:50:53;;;;;;;;;;;;;;;26.83;54.98;98924.59;4826480;29;20505;-54
2021/07/18 05:53:19;;;;;;;;;;;;;;;26.94;54.81;98923.41;4843189;29;20333;-55
2021/07/18 05:55:45;;;;;;;6.25;4.90;;;;;;;27.03;53.33;98924.19;4843106;29;19924;-55
2021/07/18 05:58:11;;;;;;;6.43;5.55;;;;;;;27.11;52.49;98924.97;4842271;29;20407;-54
2021/07/18 06:00:40;;;;;;;5.65;4.88;;;;;;;27.20;51.99;98925.75;4842914;29;20042;-56
2021/07/18 06:03:06;;;;;;;9.38;5.20;;;;;;;27.27;51.71;98921.34;4842799;29;20081;-56
2021/07/18 06:05:32;;;;;;;7.60;5.00;;;;;;;27.39;51.23;98925.28;4842902;29;21341;-55
2021/07/18 06:07:58;;;;;;;8.18;5.30;;;;;;;27.51;51.01;98918.56;4846188;29;20060;-55
2021/07/18 06:10:24;;;;;;;7.68;5.68;;;;;;;27.62;51.75;98915.47;4864535;29;20088;-55
2021/07/18 06:12:49;;;;;;;8.50;4.97;;;;;;;27.74;51.33;98913.19;4876174;29;20100;-55
2021/07/18 06:15:15;;;;;;;6.38;5.07;;;;;;;27.86;50.99;98909.06;4842579;29;20093;-56
2021/07/18 06:17:40;;;;;;;8.25;5.50;;;;;;;27.95;50.44;98907.97;4842513;29;20057;-57
2021/07/18 06:20:08;;;;;;;8.38;4.88;;;;;;;27.99;49.87;98890.56;4844765;29;20073;-56
2021/07/18 06:22:34;;;;;;;11.88;4.97;;;;;;;28.17;49.02;98908.94;4825387;29;20084;-55
2021/07/18 06:25:00;;;;;;;7.47;5.22;;;;;;;28.28;47.62;98905.81;5316356;23;20039;-55
2021/07/18 06:27:26;;;;;;;6.90;4.97;;;;;;;28.41;47.49;98914.03;4858002;29;20045;-56
2021/07/18 06:29:52;;;;;;;6.90;5.13;;;;;;;28.48;45.71;98906.06;4835254;29;20106;-54
2021/07/18 06:32:17;;;;;;;6.13;4.43;;;;;;;28.55;45.06;98905.16;4860470;29;20049;-55
2021/07/18 06:34:43;;;;;;;13.15;5.18;;;;;;;28.78;45.16;98901.56;4843907;29;20057;-56
2021/07/18 06:37:08;;;;;;;6.78;5.03;;;;;;;29.10;44.30;98903.75;4842636;29;20074;-55
2021/07/18 06:39:34;;;;;;;9.00;5.40;;;;;;;29.51;44.96;98903.19;4839816;29;20399;-56
2021/07/18 06:42:00;;;;;;;25.20;13.25;;;;;;;29.99;45.26;98906.91;4840496;29;20426;-56
2021/07/18 06:44:25;;;;;;;6.68;4.65;;;;;;;30.55;41.58;98896.94;4840834;29;20050;-55
2021/07/18 06:46:51;;;;;;;10.00;6.75;;;;;;;31.31;40.42;98892.22;4841600;29;20090;-55
2021/07/18 06:49:17;;;;;;;7.93;6.45;;;;;;;32.28;39.22;98900.53;4839425;29;20054;-55
2021/07/18 06:51:42;;;;;;;11.02;7.43;;;;;;;33.18;38.35;98900.38;4840435;29;20038;-55
2021/07/18 06:54:08;;;;;;;5.28;4.65;;;;;;;34.00;35.20;98907.47;4825079;29;20045;-56
2021/07/18 06:56:34;;;;;;;5.90;5.30;;;;;;;34.83;33.05;98910.53;4841149;29;20393;-54
2021/07/18 06:59:00;;;;;;;9.10;5.15;;;;;;;35.39;31.82;98906.63;4838491;29;20073;-55
2021/07/18 07:01:26;;;;;;;5.93;5.32;;;;;;;36.02;30.58;98909.56;4841457;29;20049;-57
2021/07/18 07:03:52;;;;;;;10.27;6.10;;;;;;;36.82;29.92;98908.91;4838863;29;20824;-56
2021/07/18 07:06:17;;;;;;;8.18;5.10;;;;;;;37.68;29.65;98908.66;4832700;29;20136;-54
2021/07/18 07:08:43;;;;;;;7.10;5.80;;;;;;;38.52;28.27;98914.81;4826252;29;20552;-58
2021/07/18 07:11:09;;;;;;;6.72;5.97;;;;;;;39.41;26.98;98911.78;4818487;29;20061;-60
2021/07/18 07:13:35;;;;;;;9.55;5.43;;;;;;;39.96;25.18;98918.78;4840924;29;20098;-56
2021/07/18 07:16:00;;;;;;;7.05;5.50;;;;;;;40.37;24.37;98912.53;4841340;29;20053;-56
2021/07/18 07:18:28;;;;;;;12.40;6.10;;;;;;;40.97;24.52;98911.16;4839993;29;20057;-57
2021/07/18 07:20:54;;;;;;;7.88;5.97;;;;;;;41.50;23.76;98915.41;4816012;29;20049;-55
2021/07/18 07:23:20;;;;;;;7.22;5.75;;;;;;;41.91;23.26;98913.50;4839225;29;20441;-55
2021/07/18 07:25:47;;;;;;;8.75;5.88;;;;;;;42.05;23.10;98914.56;4839042;29;20089;-57
2021/07/18 07:28:13;;;;;;;8.98;5.93;;;;;;;42.08;22.95;98910.47;4830650;29;20043;-56
2021/07/18 07:30:38;;;;;;;7.15;6.18;;;;;;;42.82;22.15;98907.78;4830590;29;20194;-56
2021/07/18 07:33:04;;;;;;;10.18;6.50;;;;;;;43.51;22.00;98917.78;4834164;29;20054;-57
2021/07/18 07:35:30;;;;;;;8.77;6.03;;;;;;;42.62;21.74;98905.94;4828416;29;20050;-57
2021/07/18 07:37:56;;;;;;;21.55;9.10;;;;;;;42.25;22.29;98898.13;4825584;29;20046;-56
2021/07/18 07:40:21;;;;;;;9.95;7.13;;;;;;;42.89;21.94;98905.56;4828316;29;20133;-56
2021/07/18 07:42:48;;;;;;;14.00;7.07;;;;;;;43.52;21.34;98904.91;4834476;29;20045;-55
2021/07/18 07:45:14;;;;;;;10.32;6.90;;;;;;;43.05;22.22;98909.84;4827569;29;20053;-56
2021/07/18 07:47:40;;;;;;;7.75;6.50;;;;;;;42.53;22.69;98904.06;4822128;29;20081;-56
2021/07/18 07:50:11;;;;;;;8.75;6.55;;;;;;;43.06;22.16;98900.53;4822064;29;20070;-53
2021/07/18 07:52:36;;;;;;;7.20;6.40;;;;;;;42.58;21.95;98893.94;4824812;29;20046;-54
2021/07/18 07:55:04;;;;;;;9.63;7.22;;;;;;;41.17;23.00;98891.31;4824858;29;20057;-54
2021/07/18 07:57:29;;;;;;;7.47;6.32;;;;;;;39.38;24.96;98883.19;4824452;29;20060;-54
2021/07/18 07:59:55;;;;;;;10.77;6.07;;;;;;;37.96;26.66;98891.44;4823330;29;20046;-53
2021/07/18 08:02:21;;;;;;;14.20;7.10;;;;;;;37.64;27.39;98882.25;4823435;29;20099;-55
2021/07/18 08:04:46;;;;;;;8.63;7.10;;;;;;;37.52;28.21;98887.75;4825056;29;20049;-55
2021/07/18 08:07:12;;;;;;;10.98;7.93;;;;;;;38.54;25.88;98887.41;4811916;29;20049;-54
2021/07/18 08:09:38;;;;;;;8.75;6.55;;;;;;;39.67;25.06;98889.16;4824446;29;20054;-56
2021/07/18 08:12:04;;;;;;;7.47;6.32;;;;;;;41.04;23.66;98887.19;4821993;29;20049;-56
2021/07/18 08:14:29;;;;;;;9.98;6.88;;;;;;;42.05;22.79;98895.44;4825640;29;20049;-55
2021/07/18 08:16:55;;;;;;;7.47;6.78;;;;;;;42.41;21.56;98893.44;4822961;29;20134;-59
2021/07/18 08:19:21;;;;;;;12.60;7.80;;;;;;;42.98;20.74;98903.88;4823388;29;20422;-55
2021/07/18 08:21:46;;;;;;;7.90;7.10;;;;;;;43.28;20.49;98882.91;4824446;29;20136;-53
2021/07/18 08:24:12;;;;;;;8.38;6.72;;;;;;;43.74;19.75;98886.09;4824800;29;20049;-54
2021/07/18 08:26:38;;;;;;;7.88;6.60;;;;;;;44.14;19.91;98888.47;4822626;29;20514;-55
2021/07/18 08:29:04;;;;;;;9.75;7.53;;;;;;;44.50;19.28;98886.13;4835644;29;20055;-57
2021/07/18 08:31:30;;;;;;;7.82;7.18;;;;;;;44.43;19.81;98882.94;4835313;29;20545;-56
2021/07/18 08:33:56;;;;;;;10.02;7.43;;;;;;;44.38;19.81;98873.97;4829335;29;20106;-59
2021/07/18 08:36:22;;;;;;;10.57;7.40;;;;;;;44.86;19.64;98886.50;4835102;29;20521;-60
2021/07/18 08:38:48;;;;;;;11.27;7.97;;;;;;;44.51;19.01;98879.53;4830926;29;20050;-60
2021/07/18 08:41:13;;;;;;;8.35;7.03;;;;;;;42.84;20.64;98878.25;4835900;29;20053;-60
2021/07/18 08:43:39;;;;;;;7.88;7.05;;;;;;;40.84;22.91;98873.47;4815430;29;20056;-58
2021/07/18 08:46:05;;;;;;;8.88;7.28;;;;;;;39.16;24.61;98863.38;4831855;29;20077;-58
2021/07/18 08:48:31;;;;;;;11.73;6.78;;;;;;;38.09;25.61;98869.41;4825800;29;20073;-60
2021/07/18 08:50:57;;;;;;;9.73;6.70;;;;;;;37.40;26.71;98865.28;4832023;29;20433;-58
2021/07/18 08:53:26;;;;;;;10.55;7.43;;;;;;;38.50;26.35;98859.09;4830457;29;20042;-58
2021/07/18 08:55:53;;;;;;;9.30;7.18;;;;;;;40.67;24.32;98860.06;4832833;29;20061;-58
2021/07/18 08:58:18;;;;;;;7.60;6.72;;;;;;;40.11;24.67;98862.50;4832393;29;20052;-60
2021/07/18 09:00:48;;;;;;;9.70;6.75;;;;;;;38.69;25.61;98854.97;4834198;29;20085;-58
2021/07/18 09:03:16;;;;;;;7.43;6.72;;;;;;;37.52;26.80;98857.91;4839251;29;20189;-60
2021/07/18 09:05:42;;;;;;;10.57;6.65;;;;;;;37.32;27.36;98852.13;4836443;29;20045;-59
2021/07/18 09:08:19;;;;;;;13.98;7.32;;;;;;;37.02;28.57;98846.97;4835068;29;20046;-60
2021/07/18 09:10:49;;;;;;;9.07;7.40;;;;;;;36.49;30.10;98848.09;4829121;29;20046;-60
2021/07/18 09:13:18;;;;;;;13.98;7.25;;;;;;;36.05;30.80;98851.47;4840345;29;20342;-60
2021/07/18 09:15:52;;;;;;;9.27;7.57;;;;;;;35.78;31.08;98843.00;4834654;29;20042;-59
2021/07/18 09:18:20;;;;;;;13.68;8.05;;;;;;;35.44;31.38;98839.19;4835976;29;20093;-61
2021/07/18 09:20:51;;;;;;;12.90;7.65;;;;;;;35.09;32.65;98836.38;4835193;29;20517;-62
2021/07/18 09:23:24;;;;;;;10.07;8.00;;;;;;;34.80;33.62;98837.25;4828907;29;20077;-60
2021/07/18 09:25:50;;;;;;;14.05;7.43;;;;;;;34.50;33.67;98839.03;4823259;29;20525;-59
2021/07/18 09:28:22;;;;;;;16.40;7.07;;;;;;;34.24;33.97;98829.38;4835068;29;20098;-60
2021/07/18 09:30:49;;;;;;;12.73;9.57;;;;;;;35.72;32.68;98841.22;4833380;29;20038;-61
2021/07/18 09:33:28;;;;;;;13.88;10.05;;;;;;;37.84;28.61;98841.06;4827733;29;20049;-61
2021/07/18 09:36:11;;;;;;;15.32;11.25;;;;;;;39.52;26.02;98841.97;4824588;29;20482;-59
2021/07/18 09:38:37;;;;;;;24.27;9.68;;;;;;;40.53;24.41;98837.09;4834932;29;20506;-60
2021/07/18 09:41:03;;;;;;;9.13;8.32;;;;;;;41.43;22.90;98825.56;4828823;29;20050;-59
2021/07/18 09:43:29;;;;;;;9.48;8.57;;;;;;;42.17;22.17;98838.59;4841237;29;20089;-59
2021/07/18 09:46:08;;;;;;;11.00;8.40;;;;;;;42.63;22.32;98827.47;4838481;29;20046;-59
2021/07/18 09:48:44;;;;;;;9.77;7.95;;;;;;;42.85;22.11;98821.63;4826423;29;20387;-62
2021/07/18 09:51:15;;;;;;;9.43;8.50;;;;;;;43.55;21.78;98825.75;4828604;29;20055;-59
2021/07/18 09:53:42;;;;;;;13.95;9.50;;;;;;;44.05;21.09;98826.34;4832338;29;20042;-58
2021/07/18 09:56:17;;;;;;;13.70;9.55;;;;;;;44.54;20.97;98829.63;4832226;29;20577;-61
2021/07/18 09:58:57;;;;;;;9.45;8.43;;;;;;;44.27;19.89;98822.00;4814209;29;20078;-59
2021/07/18 10:01:24;;;;;;;8.93;8.13;;;;;;;44.16;19.55;98825.13;4817952;29;20053;-59
2021/07/18 10:03:54;;;;;;;9.23;8.27;;;;;;;43.66;20.56;98807.28;4825501;29;20110;-60
2021/07/18 10:06:25;;;;;;;9.00;8.10;;;;;;;44.38;19.67;98810.91;4830489;29;20390;-61
2021/07/18 10:08:53;;;;;;;10.75;8.35;;;;;;;45.02;19.84;98813.00;4840299;29;20140;-59
2021/07/18 10:11:23;;;;;;;12.50;10.45;;;;;;;45.55;19.45;98806.09;4827968;29;20050;-60
2021/07/18 10:13:51;;;;;;;12.40;9.85;;;;;;;46.02;18.87;98804.13;4807468;29;20042;-58
2021/07/18 10:16:19;;;;;;;10.18;9.18;;;;;;;46.25;17.70;98799.56;4823758;29;20046;-58
2021/07/18 10:18:48;;;;;;;10.00;8.45;;;;;;;45.49;18.53;98795.50;4825888;29;20062;-60
2021/07/18 10:21:18;;;;;;;10.32;9.23;;;;;;;45.74;18.68;98791.50;4826180;29;20050;-59
2021/07/18 10:23:44;;;;;;;9.18;7.53;;;;;;;46.09;17.79;98790.81;4825775;29;20587;-59
2021/07/18 10:26:17;;;;;;;10.10;9.10;;;;;;;45.41;19.00;98786.03;4824255;29;20069;-60
2021/07/18 10:28:43;;;;;;;10.82;7.68;;;;;;;43.94;20.21;98779.09;4823714;29;20114;-60
2021/07/18 10:31:17;;;;;;;9.25;8.10;;;;;;;42.42;21.73;98763.06;4819279;29;20062;-59
2021/07/18 10:33:43;;;;;;;11.80;7.72;;;;;;;41.32;23.27;98765.81;4820665;29;20046;-58
2021/07/18 10:36:09;;;;;;;8.07;7.38;;;;;;;41.95;21.90;98758.88;4810212;29;20525;-61
2021/07/18 10:38:35;;;;;;;8.50;7.65;;;;;;;42.22;22.11;98755.75;4824568;29;20042;-61
2021/07/18 10:41:01;;;;;;;9.23;7.70;;;;;;;42.67;20.89;98751.97;4820990;29;20390;-59
2021/07/18 10:43:39;;;;;;;11.85;8.50;;;;;;;43.14;20.51;98754.09;4833632;29;20045;-54
2021/07/18 10:46:08;;;;;;;8.95;8.05;;;;;;;43.65;19.60;98750.91;4829284;29;20502;-56
2021/07/18 10:48:43;;;;;;;9.23;8.32;;;;;;;44.32;19.32;98749.84;4828364;29;20103;-60
2021/07/18 10:51:10;;;;;;;10.45;9.40;;;;;;;44.88;19.95;98746.28;4833577;29;20046;-59
2021/07/18 10:53:38;;;;;;;9.85;8.32;;;;;;;45.00;18.54;98739.22;4816418;29;20123;-59
2021/07/18 10:56:04;;;;;;;10.13;8.27;;;;;;;45.49;18.85;98724.91;4820318;29;20071;-60
2021/07/18 10:58:39;;;;;;;9.00;8.20;;;;;;;45.17;17.79;98735.13;4834658;29;20073;-60
2021/07/18 11:01:11;;;;;;;9.77;8.77;;;;;;;43.94;18.80;98731.69;4817599;29;20050;-59
2021/07/18 11:03:41;;;;;;;10.68;9.27;;;;;;;43.80;19.49;98721.44;4831957;29;20110;-59
2021/07/18 11:06:20;;;;;;;9.55;8.65;;;;;;;44.73;19.33;98726.22;4835981;29;20069;-59
2021/07/18 11:09:18;;;;;;;9.27;8.38;;;;;;;45.30;18.67;98726.91;4817034;29;20458;-57
2021/07/18 11:11:50;;;;;;;9.63;8.63;;;;;;;45.37;18.27;98721.84;4829385;29;20054;-59
2021/07/18 11:14:36;;;;;;;10.95;8.60;;;;;;;45.15;18.82;98724.44;4817387;29;20724;-58
2021/07/18 11:17:08;;;;;;;8.98;7.68;;;;;;;44.57;19.02;98721.22;4819178;29;20344;-59
2021/07/18 11:19:39;;;;;;;8.13;7.10;;;;;;;43.67;20.16;98718.56;4835263;29;20057;-59
2021/07/18 11:22:10;;;;;;;9.13;7.82;;;;;;;43.06;20.92;98716.41;4832030;29;20351;-61
2021/07/18 11:24:54;;;;;;;9.63;8.70;;;;;;;42.64;21.37;98712.34;4835562;29;20077;-59
2021/07/18 11:27:27;;;;;;;8.80;7.88;;;;;;;42.54;21.01;98712.44;4831312;29;20054;-60